Time;durP1;ratioP1;P1;durP2;ratioP2;P2;SDS_P1;SDS_P2;PMS_P1;PMS_P2;Temp;Humidity;BMP_temperature;BMP_pressure;BME280_temperature;BME280_humidity;BME280_pressure;Samples;Min_cycle;Max_cycle;Signal;HPM_P1;HPM_P2
2021/03/17 00:01:05;;;;;;;8.20;7.40;;;3.60;99.90;;;;;;4923115;29;20419;-81
2021/03/17 00:03:31;;;;;;;16.07;9.10;;;3.60;99.90;;;;;;4923045;29;20378;-81
2021/03/17 00:05:57;;;;;;;14.40;8.17;;;3.60;99.90;;;;;;4922888;29;20413;-81
2021/03/17 00:08:23;;;;;;;8.17;6.60;;;3.60;99.90;;;;;;4923177;29;20486;-81
2021/03/17 00:10:51;;;;;;;8.83;6.47;;;3.60;99.90;;;;;;4924085;29;20256;-80
2021/03/17 00:13:20;;;;;;;9.67;7.30;;;3.50;99.90;;;;;;4906993;29;20447;-80
2021/03/17 00:15:46;;;;;;;13.43;7.20;;;3.60;99.90;;;;;;4923915;29;20403;-81
2021/03/17 00:18:13;;;;;;;12.00;7.20;;;3.60;99.90;;;;;;4923350;29;20391;-80
2021/03/17 00:20:40;;;;;;;11.97;7.97;;;3.60;99.90;;;;;;4922540;29;20665;-80
2021/03/17 00:23:06;;;;;;;9.37;7.07;;;3.60;99.90;;;;;;4922603;29;20440;-80
2021/03/17 00:25:34;;;;;;;12.43;8.50;;;3.80;99.90;;;;;;4922941;29;20411;-80
2021/03/17 00:28:02;;;;;;;12.33;8.13;;;3.90;99.90;;;;;;4922611;29;20401;-80
2021/03/17 00:30:30;;;;;;;9.47;8.43;;;3.90;99.90;;;;;;4907265;29;20440;-80
2021/03/17 00:32:59;;;;;;;9.50;8.60;;;3.80;99.90;;;;;;4922567;29;20380;-81
2021/03/17 00:35:24;;;;;;;14.20;9.57;;;3.80;99.90;;;;;;4922211;29;20444;-80
2021/03/17 00:37:50;;;;;;;9.13;7.37;;;3.70;99.90;;;;;;4924384;29;20379;-81
2021/03/17 00:40:16;;;;;;;21.20;9.10;;;3.70;99.90;;;;;;4907152;29;20255;-80
2021/03/17 00:42:42;;;;;;;9.10;7.70;;;3.50;99.90;;;;;;4923135;29;20400;-80
2021/03/17 00:45:09;;;;;;;9.67;8.30;;;3.70;99.90;;;;;;4925194;29;20266;-80
2021/03/17 00:47:36;;;;;;;10.40;8.00;;;3.80;99.90;;;;;;4927710;29;20169;-80
2021/03/17 00:50:04;;;;;;;10.37;6.87;;;3.70;99.90;;;;;;4927715;29;20402;-80
2021/03/17 00:52:30;;;;;;;11.00;7.90;;;3.70;99.90;;;;;;4910748;29;20404;-80
2021/03/17 00:54:56;;;;;;;11.27;9.10;;;3.70;99.90;;;;;;4926165;29;20379;-80
2021/03/17 00:57:24;;;;;;;11.07;8.17;;;3.60;99.90;;;;;;4927431;29;20157;-80
2021/03/17 00:59:50;;;;;;;8.37;7.57;;;3.60;99.90;;;;;;4927071;29;20379;-80
2021/03/17 01:02:16;;;;;;;9.03;7.37;;;3.60;99.90;;;;;;4926154;29;20160;-80
2021/03/17 01:04:43;;;;;;;11.63;9.27;;;3.70;99.90;;;;;;4926994;29;20248;-81
2021/03/17 01:07:12;;;;;;;13.23;9.00;;;3.70;99.90;;;;;;4926168;29;20501;-81
2021/03/17 01:09:39;;;;;;;9.47;7.37;;;3.80;99.90;;;;;;4910509;29;20397;-80
2021/03/17 01:12:07;;;;;;;12.20;7.37;;;3.80;99.90;;;;;;4926418;29;20392;-80
2021/03/17 01:14:33;;;;;;;10.03;7.80;;;4.10;99.90;;;;;;4925967;29;20375;-81
2021/03/17 01:17:00;;;;;;;10.20;7.20;;;4.30;99.90;;;;;;4926206;29;20421;-80
2021/03/17 01:19:29;;;;;;;12.00;7.60;;;4.50;99.90;;;;;;4924957;29;20411;-81
2021/03/17 01:21:55;;;;;;;10.80;7.40;;;4.60;99.90;;;;;;4908777;29;20442;-80
2021/03/17 01:24:21;;;;;;;7.47;6.40;;;4.70;99.90;;;;;;4924396;29;20405;-80
2021/03/17 01:26:47;;;;;;;7.53;6.83;;;4.80;99.90;;;;;;4909107;29;20187;-80
2021/03/17 01:29:13;;;;;;;8.30;6.17;;;4.80;99.90;;;;;;4908589;29;20821;-80
2021/03/17 01:31:38;;;;;;;11.60;7.33;;;4.80;99.90;;;;;;4924643;29;20169;-81
2021/03/17 01:34:04;;;;;;;6.10;5.33;;;4.80;99.90;;;;;;4925167;29;20188;-80
2021/03/17 01:36:30;;;;;;;9.23;7.07;;;4.80;99.90;;;;;;4910351;29;20162;-79
2021/03/17 01:38:56;;;;;;;5.13;4.10;;;4.90;99.90;;;;;;4909557;29;20279;-81
2021/03/17 01:41:21;;;;;;;9.43;7.20;;;4.80;99.90;;;;;;4910153;29;20197;-80
2021/03/17 01:43:47;;;;;;;8.90;7.10;;;4.80;99.90;;;;;;4925600;29;20205;-80
2021/03/17 01:46:13;;;;;;;15.40;6.23;;;4.80;99.90;;;;;;4891890;29;20224;-80
2021/03/17 01:48:39;;;;;;;14.07;8.30;;;4.80;99.90;;;;;;4907958;29;20397;-81
2021/03/17 01:51:07;;;;;;;9.67;6.03;;;4.80;99.90;;;;;;4920481;29;20192;-81
2021/03/17 01:53:36;;;;;;;8.80;5.70;;;4.80;99.90;;;;;;4924822;29;20401;-80
2021/03/17 01:56:04;;;;;;;9.60;6.10;;;4.70;99.90;;;;;;4924597;29;20427;-81
2021/03/17 01:58:30;;;;;;;7.17;5.80;;;4.70;99.90;;;;;;4925113;29;20394;-80
2021/03/17 02:00:57;;;;;;;9.83;7.10;;;4.70;99.90;;;;;;4923592;29;20442;-80
2021/03/17 02:03:25;;;;;;;8.43;5.10;;;4.70;99.90;;;;;;4924129;29;20379;-81
2021/03/17 02:05:53;;;;;;;7.37;6.57;;;4.70;99.90;;;;;;4925035;29;20383;-81
2021/03/17 02:08:22;;;;;;;12.03;8.13;;;4.70;99.90;;;;;;4924411;29;20403;-80
2021/03/17 02:10:50;;;;;;;9.70;6.70;;;4.70;99.90;;;;;;4925061;29;20409;-81
2021/03/17 02:13:37;;;;;;;11.43;5.37;;;4.70;99.90;;;;;;4924589;29;20444;-80
2021/03/17 02:16:35;;;;;;;9.37;6.70;;;4.70;99.90;;;;;;4924617;29;20409;-81
2021/03/17 02:19:35;;;;;;;7.70;5.97;;;4.60;99.90;;;;;;4939308;29;20749;-81
2021/03/17 02:22:36;;;;;;;13.23;6.23;;;4.50;99.90;;;;;;4923091;29;20432;-81
2021/03/17 02:25:28;;;;;;;7.67;5.77;;;4.30;99.90;;;;;;4924749;29;20378;-80
2021/03/17 02:28:16;;;;;;;6.97;5.77;;;4.10;99.90;;;;;;4924969;29;20478;-80
2021/03/17 02:31:07;;;;;;;11.37;7.10;;;4.10;99.90;;;;;;4923984;29;20371;-80
2021/03/17 02:34:07;;;;;;;12.53;8.50;;;4.40;99.90;;;;;;4924126;29;20379;-80
2021/03/17 02:36:51;;;;;;;10.83;7.53;;;4.50;99.90;;;;;;4944491;29;20383;-78
2021/03/17 02:39:25;;;;;;;5.87;5.37;;;4.60;99.90;;;;;;4929301;29;20452;-78
2021/03/17 02:42:09;;;;;;;8.50;7.33;;;4.50;99.90;;;;;;4929535;29;20426;-78
2021/03/17 02:44:46;;;;;;;11.07;7.60;;;4.50;99.90;;;;;;4929699;29;20404;-78
2021/03/17 02:47:14;;;;;;;6.50;5.50;;;4.50;99.90;;;;;;4925503;29;20763;-80
2021/03/17 02:49:43;;;;;;;8.93;6.63;;;4.50;99.90;;;;;;4940438;29;20477;-80
2021/03/17 02:52:10;;;;;;;6.87;5.80;;;4.50;99.90;;;;;;4908896;29;20484;-80
2021/03/17 02:54:37;;;;;;;15.33;6.80;;;4.50;99.90;;;;;;4925911;29;20386;-80
2021/03/17 02:57:18;;;;;;;12.83;7.13;;;4.40;99.90;;;;;;4908741;29;20384;-80
2021/03/17 02:59:50;;;;;;;13.13;6.90;;;4.30;99.90;;;;;;4925421;29;20503;-81
2021/03/17 03:02:19;;;;;;;8.97;6.80;;;4.40;99.90;;;;;;4909064;29;20461;-81
2021/03/17 03:04:45;;;;;;;7.07;6.37;;;4.40;99.90;;;;;;4923512;29;20405;-80
2021/03/17 03:07:14;;;;;;;9.67;6.80;;;4.40;99.90;;;;;;4925176;29;20989;-80
2021/03/17 03:09:41;;;;;;;5.33;4.60;;;4.40;99.90;;;;;;4923757;29;20452;-80
2021/03/17 03:12:09;;;;;;;5.43;4.87;;;4.40;99.90;;;;;;4924716;29;20582;-80
2021/03/17 03:14:35;;;;;;;10.00;6.90;;;4.50;99.90;;;;;;4924191;29;20405;-80
2021/03/17 03:17:04;;;;;;;11.37;8.20;;;4.40;99.90;;;;;;4907860;29;20399;-80
2021/03/17 03:19:32;;;;;;;7.50;5.87;;;4.50;99.90;;;;;;4924640;29;20401;-81
2021/03/17 03:22:01;;;;;;;12.90;7.53;;;4.40;99.90;;;;;;4923459;29;20419;-80
2021/03/17 03:24:28;;;;;;;11.23;7.00;;;4.40;99.90;;;;;;4923302;29;20475;-80
2021/03/17 03:26:57;;;;;;;7.83;5.83;;;4.30;99.90;;;;;;4923253;29;20408;-80
2021/03/17 03:29:25;;;;;;;7.90;5.77;;;4.20;99.90;;;;;;4939366;29;20420;-81
2021/03/17 03:31:51;;;;;;;9.57;6.20;;;4.20;99.90;;;;;;4923391;29;20844;-81
2021/03/17 03:34:19;;;;;;;10.37;7.60;;;4.20;99.90;;;;;;4923830;29;20409;-80
2021/03/17 03:36:45;;;;;;;8.47;6.93;;;4.20;99.90;;;;;;4907989;29;20220;-80
2021/03/17 03:39:13;;;;;;;8.77;6.20;;;4.20;99.90;;;;;;4923275;29;20532;-80
2021/03/17 03:41:42;;;;;;;9.10;6.40;;;4.30;99.90;;;;;;4923914;29;20445;-81
2021/03/17 03:44:08;;;;;;;12.93;7.57;;;4.30;99.90;;;;;;4924154;29;20401;-80
2021/03/17 03:46:35;;;;;;;10.73;7.23;;;4.40;99.90;;;;;;4923937;29;20459;-80
2021/03/17 03:49:02;;;;;;;11.10;8.10;;;4.20;99.90;;;;;;4925937;29;20176;-80
2021/03/17 03:51:30;;;;;;;11.03;6.80;;;4.20;99.90;;;;;;4924442;29;20380;-81
2021/03/17 03:54:15;;;;;;;14.63;7.70;;;4.20;99.90;;;;;;4924001;29;20379;-81
2021/03/17 03:56:52;;;;;;;6.30;5.60;;;4.30;99.90;;;;;;4907442;29;20418;-81
2021/03/17 03:59:23;;;;;;;6.40;5.77;;;4.30;99.90;;;;;;4923839;29;20499;-81
2021/03/17 04:01:55;;;;;;;7.73;6.93;;;4.20;99.90;;;;;;4925033;29;20430;-79
2021/03/17 04:04:24;;;;;;;9.43;6.77;;;4.30;99.90;;;;;;4923890;29;20401;-80
2021/03/17 04:06:54;;;;;;;9.63;5.87;;;4.30;99.90;;;;;;4925085;29;20492;-80
2021/03/17 04:09:27;;;;;;;10.30;7.17;;;4.20;99.90;;;;;;4941447;29;20757;-80
2021/03/17 04:11:58;;;;;;;10.03;7.50;;;4.20;99.90;;;;;;4940501;29;20508;-81
2021/03/17 04:14:26;;;;;;;12.03;7.37;;;4.20;99.90;;;;;;4925146;29;20386;-80
2021/03/17 04:16:53;;;;;;;18.60;9.13;;;4.30;99.90;;;;;;4941038;29;20371;-78
2021/03/17 04:19:22;;;;;;;9.27;8.10;;;4.30;99.90;;;;;;4925565;29;20420;-80
2021/03/17 04:21:48;;;;;;;14.23;7.70;;;4.40;99.90;;;;;;4912824;29;20841;-80
2021/03/17 04:24:16;;;;;;;9.40;7.00;;;4.40;99.90;;;;;;4928839;29;20416;-80
2021/03/17 04:26:43;;;;;;;16.23;7.20;;;4.40;99.90;;;;;;4928575;29;20411;-80
2021/03/17 04:29:14;;;;;;;9.70;6.37;;;4.40;99.90;;;;;;4911132;29;20407;-81
2021/03/17 04:31:42;;;;;;;9.00;6.80;;;4.30;99.90;;;;;;4909789;29;20539;-80
2021/03/17 04:34:09;;;;;;;13.67;8.03;;;4.30;99.90;;;;;;4925224;29;20530;-81
2021/03/17 04:36:39;;;;;;;10.10;7.77;;;4.30;99.90;;;;;;4909469;29;20509;-80
2021/03/17 04:39:06;;;;;;;8.90;7.47;;;4.20;99.90;;;;;;4908543;29;20443;-81
2021/03/17 04:41:32;;;;;;;18.60;8.83;;;4.20;99.90;;;;;;4905927;29;20505;-80
2021/03/17 04:43:58;;;;;;;11.67;9.70;;;4.30;99.90;;;;;;4892693;29;20410;-81
2021/03/17 04:46:25;;;;;;;10.83;7.37;;;4.30;99.90;;;;;;4907469;29;20553;-81
2021/03/17 04:48:51;;;;;;;8.97;7.20;;;4.30;99.90;;;;;;4885712;29;20409;-81
2021/03/17 04:51:18;;;;;;;12.50;7.53;;;4.30;99.90;;;;;;4870349;29;20562;-81
2021/03/17 04:53:44;;;;;;;11.87;9.93;;;4.40;99.90;;;;;;4870733;29;20609;-81
2021/03/17 04:56:11;;;;;;;16.20;8.50;;;4.40;99.90;;;;;;4855460;29;20422;-81
2021/03/17 04:58:39;;;;;;;11.87;7.10;;;4.40;99.90;;;;;;4886596;29;20538;-80
2021/03/17 05:01:11;;;;;;;13.23;7.77;;;4.40;99.90;;;;;;4873923;29;20447;-80
2021/03/17 05:03:39;;;;;;;12.33;7.20;;;4.30;99.90;;;;;;4908680;29;20429;-78
2021/03/17 05:06:05;;;;;;;14.77;8.53;;;4.20;99.90;;;;;;4910529;29;20385;-78
2021/03/17 05:08:34;;;;;;;11.83;8.20;;;4.20;99.90;;;;;;4911019;29;20405;-78
2021/03/17 05:11:00;;;;;;;13.53;8.27;;;4.20;99.90;;;;;;4910632;29;20918;-78
2021/03/17 05:13:27;;;;;;;15.10;9.93;;;4.10;99.90;;;;;;4898602;29;20423;-78
2021/03/17 05:15:53;;;;;;;12.30;9.10;;;4.10;99.90;;;;;;4862166;29;20182;-80
2021/03/17 05:18:20;;;;;;;12.30;9.50;;;4.10;99.90;;;;;;4870722;29;20410;-80
2021/03/17 05:20:49;;;;;;;12.57;7.73;;;4.10;99.90;;;;;;4904975;29;20465;-81
2021/03/17 05:23:17;;;;;;;12.63;8.90;;;4.10;99.90;;;;;;4908064;29;20496;-80
2021/03/17 05:25:45;;;;;;;20.80;8.50;;;4.10;99.90;;;;;;4902589;29;20468;-80
2021/03/17 05:28:14;;;;;;;21.07;8.50;;;4.10;99.90;;;;;;4925948;29;20401;-80
2021/03/17 05:30:41;;;;;;;9.87;8.63;;;4.10;99.90;;;;;;4926174;29;20405;-80
2021/03/17 05:33:10;;;;;;;15.43;9.67;;;4.00;99.90;;;;;;4892818;29;20895;-80
2021/03/17 05:35:37;;;;;;;11.13;7.73;;;4.10;99.90;;;;;;4927108;29;20419;-80
2021/03/17 05:38:04;;;;;;;10.43;8.73;;;4.10;99.90;;;;;;4907821;29;20415;-80
2021/03/17 05:40:31;;;;;;;23.67;8.97;;;4.20;99.90;;;;;;4916608;29;20531;-80
2021/03/17 05:43:02;;;;;;;9.43;7.70;;;4.20;99.90;;;;;;4899318;29;20512;-80
2021/03/17 05:45:29;;;;;;;16.23;8.27;;;4.30;99.90;;;;;;4888789;29;20434;-80
2021/03/17 05:47:55;;;;;;;13.13;9.30;;;4.40;99.90;;;;;;4885396;29;20397;-81
2021/03/17 05:50:23;;;;;;;12.53;8.80;;;4.30;99.90;;;;;;4904123;29;20549;-81
2021/03/17 05:52:52;;;;;;;13.93;10.10;;;4.30;99.90;;;;;;4889005;29;20410;-81
2021/03/17 05:55:18;;;;;;;16.77;10.73;;;4.30;99.90;;;;;;4889827;29;20532;-80
2021/03/17 05:57:45;;;;;;;18.37;10.13;;;4.30;99.90;;;;;;4890246;29;20335;-80
2021/03/17 06:00:18;;;;;;;9.17;8.20;;;4.40;99.90;;;;;;4900832;29;20423;-80
2021/03/17 06:02:47;;;;;;;18.87;10.00;;;4.40;99.90;;;;;;4894515;29;20444;-80
2021/03/17 06:05:14;;;;;;;13.77;9.70;;;4.40;99.90;;;;;;4908658;29;20400;-80
2021/03/17 06:08:04;;;;;;;12.97;8.60;;;4.30;99.90;;;;;;4855429;29;20448;-80
2021/03/17 06:10:31;;;;;;;9.13;7.50;;;4.30;99.90;;;;;;4906021;29;20404;-80
2021/03/17 06:13:06;;;;;;;17.60;11.13;;;4.30;99.90;;;;;;4909262;29;20799;-80
2021/03/17 06:15:32;;;;;;;14.63;8.30;;;4.30;99.90;;;;;;4904858;29;20441;-80
2021/03/17 06:18:01;;;;;;;11.23;9.27;;;4.30;99.90;;;;;;4893420;29;20452;-80
2021/03/17 06:20:27;;;;;;;14.63;7.17;;;4.30;99.90;;;;;;4922915;29;20431;-79
2021/03/17 06:22:54;;;;;;;13.50;8.43;;;4.30;99.90;;;;;;4890746;29;20424;-82
2021/03/17 06:25:20;;;;;;;13.30;7.60;;;4.30;99.90;;;;;;4906207;29;20436;-81
2021/03/17 06:27:48;;;;;;;15.03;8.80;;;4.30;99.90;;;;;;4896287;29;20419;-79
2021/03/17 06:30:14;;;;;;;13.20;7.43;;;4.30;99.90;;;;;;4889095;29;20433;-80
2021/03/17 06:32:40;;;;;;;17.90;8.00;;;4.30;99.90;;;;;;4904674;29;20767;-79
2021/03/17 06:35:21;;;;;;;14.60;8.70;;;4.30;99.90;;;;;;4888223;29;20465;-81
2021/03/17 06:37:47;;;;;;;18.27;8.47;;;4.20;99.90;;;;;;4889379;29;20196;-81
2021/03/17 06:40:36;;;;;;;11.53;8.80;;;4.20;99.90;;;;;;4915042;29;20489;-80
2021/03/17 06:43:07;;;;;;;14.07;7.63;;;4.30;99.90;;;;;;4906782;29;20429;-81
2021/03/17 06:45:46;;;;;;;9.93;6.77;;;4.30;99.90;;;;;;4906839;29;20455;-81
2021/03/17 06:48:21;;;;;;;10.40;7.27;;;4.30;99.90;;;;;;4906091;29;20434;-80
2021/03/17 06:51:04;;;;;;;11.30;7.80;;;4.30;99.90;;;;;;4920031;29;20414;-81
2021/03/17 06:53:40;;;;;;;20.50;8.93;;;4.30;99.90;;;;;;4915474;29;20445;-81
2021/03/17 06:56:25;;;;;;;14.07;8.80;;;4.30;99.90;;;;;;4904696;29;20456;-81
2021/03/17 06:58:54;;;;;;;11.93;6.90;;;4.30;99.90;;;;;;4908991;29;20926;-81
2021/03/17 07:01:34;;;;;;;8.90;5.50;;;4.30;99.90;;;;;;4917836;29;20984;-78
2021/03/17 07:04:04;;;;;;;8.83;7.27;;;4.40;99.90;;;;;;4904752;29;20389;-79
2021/03/17 07:06:30;;;;;;;6.47;5.80;;;4.40;99.90;;;;;;4904455;29;20400;-80
2021/03/17 07:08:57;;;;;;;7.50;5.80;;;4.40;99.90;;;;;;4889514;29;20438;-80
2021/03/17 07:11:27;;;;;;;10.60;7.10;;;4.40;99.90;;;;;;4905895;29;20426;-80
2021/03/17 07:13:55;;;;;;;8.03;6.47;;;4.50;99.90;;;;;;4918193;29;20428;-80
2021/03/17 07:16:34;;;;;;;13.33;8.33;;;4.50;99.90;;;;;;4906379;29;20453;-80
2021/03/17 07:19:01;;;;;;;14.60;6.23;;;4.60;99.90;;;;;;4911411;29;20439;-80
2021/03/17 07:21:39;;;;;;;10.83;7.10;;;4.60;99.90;;;;;;4922450;29;20458;-80
2021/03/17 07:24:07;;;;;;;10.20;6.23;;;4.70;99.90;;;;;;4933797;29;20898;-80
2021/03/17 07:26:36;;;;;;;11.63;6.57;;;4.80;99.90;;;;;;4916756;29;20432;-80
2021/03/17 07:29:12;;;;;;;9.90;6.90;;;4.70;99.90;;;;;;4894126;29;21024;-80
2021/03/17 07:31:47;;;;;;;12.87;6.67;;;4.90;99.90;;;;;;4884985;29;20442;-80
2021/03/17 07:34:19;;;;;;;10.07;6.57;;;5.00;99.90;;;;;;4873384;29;20460;-80
2021/03/17 07:36:49;;;;;;;11.43;6.50;;;4.90;99.90;;;;;;4894584;29;20421;-80
2021/03/17 07:39:19;;;;;;;10.60;5.40;;;5.00;99.90;;;;;;4894222;29;20479;-79
2021/03/17 07:41:46;;;;;;;7.23;5.80;;;5.10;99.90;;;;;;4883233;29;20449;-79
2021/03/17 07:44:13;;;;;;;13.40;7.20;;;5.10;99.90;;;;;;4878030;29;20451;-79
2021/03/17 07:46:44;;;;;;;9.00;5.90;;;5.20;99.90;;;;;;4903809;29;20392;-80
2021/03/17 07:49:12;;;;;;;8.13;5.50;;;5.20;99.90;;;;;;4892887;29;20437;-80
2021/03/17 07:51:43;;;;;;;4.93;4.50;;;5.40;99.90;;;;;;4886288;29;20503;-80
2021/03/17 07:54:13;;;;;;;6.83;4.27;;;5.50;99.90;;;;;;4899756;29;20421;-80
2021/03/17 07:56:39;;;;;;;7.47;5.30;;;5.60;99.90;;;;;;4883125;29;20434;-80
2021/03/17 07:59:06;;;;;;;23.47;4.50;;;5.60;99.90;;;;;;4883621;29;20458;-80
2021/03/17 08:01:32;;;;;;;4.37;3.57;;;5.60;99.90;;;;;;4887046;29;20213;-80
2021/03/17 08:04:02;;;;;;;11.90;4.80;;;5.70;99.90;;;;;;4914746;29;20420;-80
2021/03/17 08:06:28;;;;;;;8.27;4.17;;;5.40;99.90;;;;;;4901509;29;20500;-79
2021/03/17 08:08:58;;;;;;;4.20;3.50;;;5.30;99.90;;;;;;4916225;29;20557;-80
2021/03/17 08:11:25;;;;;;;8.83;5.67;;;5.50;99.90;;;;;;4917203;29;20180;-80
2021/03/17 08:13:52;;;;;;;5.67;3.93;;;5.70;99.90;;;;;;4909752;29;20909;-80
2021/03/17 08:16:21;;;;;;;8.20;4.73;;;5.60;99.90;;;;;;4899090;29;20415;-79
2021/03/17 08:18:48;;;;;;;8.93;4.13;;;5.70;99.90;;;;;;4920543;29;20445;-81
2021/03/17 08:21:15;;;;;;;8.53;3.60;;;6.10;99.90;;;;;;4903965;29;20484;-80
2021/03/17 08:23:44;;;;;;;5.67;3.37;;;6.30;99.90;;;;;;4911063;29;20448;-81
2021/03/17 08:26:13;;;;;;;4.50;4.10;;;6.30;99.90;;;;;;4908079;29;20417;-81
2021/03/17 08:28:52;;;;;;;6.60;3.90;;;6.50;99.90;;;;;;4924529;29;20451;-80
2021/03/17 08:31:52;;;;;;;5.47;4.30;;;6.50;99.90;;;;;;4916653;29;20440;-81
2021/03/17 08:34:25;;;;;;;6.30;3.87;;;6.50;99.90;;;;;;4920464;29;20436;-81
2021/03/17 08:36:54;;;;;;;8.63;3.10;;;6.70;99.90;;;;;;4921014;29;20512;-81
2021/03/17 08:39:40;;;;;;;4.37;2.60;;;6.80;99.90;;;;;;4922101;29;20464;-80
2021/03/17 08:42:09;;;;;;;2.80;2.03;;;6.80;99.90;;;;;;4915529;29;20444;-80
2021/03/17 08:44:44;;;;;;;6.37;3.70;;;6.80;99.90;;;;;;4945727;29;20917;-80
2021/03/17 08:47:33;;;;;;;7.57;3.30;;;6.90;99.90;;;;;;4883875;29;20497;-80
2021/03/17 08:50:23;;;;;;;5.43;2.97;;;7.00;99.90;;;;;;4880874;29;20927;-81
2021/03/17 08:52:54;;;;;;;3.00;2.70;;;6.90;99.90;;;;;;4883853;29;20430;-81
2021/03/17 08:55:34;;;;;;;7.77;3.70;;;6.90;99.90;;;;;;4886892;29;20399;-80
2021/03/17 08:58:08;;;;;;;3.00;2.70;;;6.80;99.90;;;;;;4885772;29;20478;-81
2021/03/17 09:00:46;;;;;;;3.00;2.23;;;7.00;99.90;;;;;;4880778;29;20461;-81
2021/03/17 09:03:34;;;;;;;13.30;7.67;;;6.30;99.90;;;;;;4903071;29;20817;-81
2021/03/17 09:06:18;;;;;;;4.30;3.07;;;6.70;99.90;;;;;;4880893;29;20437;-81
2021/03/17 09:08:50;;;;;;;5.03;3.17;;;6.90;99.90;;;;;;4904218;29;20431;-79
2021/03/17 09:11:48;;;;;;;2.97;2.70;;;6.90;99.90;;;;;;4899102;29;20451;-78
2021/03/17 09:14:23;;;;;;;4.40;2.70;;;6.90;99.90;;;;;;4906349;29;20429;-79
2021/03/17 09:17:13;;;;;;;6.90;2.93;;;6.80;99.90;;;;;;4901784;29;20387;-80
2021/03/17 09:19:55;;;;;;;7.33;3.17;;;6.70;99.90;;;;;;4940511;29;20471;-79
2021/03/17 09:22:40;;;;;;;6.40;2.50;;;6.40;99.90;;;;;;4929562;29;20490;-81
2021/03/17 09:25:21;;;;;;;8.00;3.00;;;6.40;99.90;;;;;;4923884;29;20540;-80
2021/03/17 09:27:50;;;;;;;2.20;1.90;;;6.70;99.90;;;;;;4940613;29;20415;-80
2021/03/17 09:30:19;;;;;;;5.67;2.50;;;6.90;99.90;;;;;;4899651;29;20497;-80
2021/03/17 09:32:45;;;;;;;1.50;1.40;;;7.00;99.90;;;;;;4891988;29;20424;-80
2021/03/17 09:35:14;;;;;;;4.47;2.10;;;7.10;99.90;;;;;;4903810;29;20891;-81
2021/03/17 09:37:41;;;;;;;1.80;1.70;;;7.20;99.90;;;;;;4910893;29;20401;-80
2021/03/17 09:40:08;;;;;;;3.47;1.90;;;7.20;99.90;;;;;;4910411;29;20457;-80
2021/03/17 09:42:38;;;;;;;3.03;1.40;;;7.00;99.90;;;;;;4926597;29;20495;-80
2021/03/17 09:45:07;;;;;;;3.23;2.20;;;7.20;99.90;;;;;;4894907;29;20493;-81
2021/03/17 09:47:33;;;;;;;1.73;1.53;;;7.30;99.90;;;;;;4925878;29;20416;-80
2021/03/17 09:49:59;;;;;;;1.60;1.50;;;7.20;99.90;;;;;;4940084;29;20399;-81
2021/03/17 09:52:27;;;;;;;1.60;1.47;;;7.20;99.90;;;;;;4903822;29;20169;-81
2021/03/17 09:54:53;;;;;;;2.50;1.50;;;7.20;99.90;;;;;;4909467;29;20914;-81
2021/03/17 09:57:22;;;;;;;4.73;1.73;;;7.10;99.90;;;;;;4921043;29;20496;-81
2021/03/17 10:00:07;;;;;;;2.93;1.43;;;7.00;99.90;;;;;;4897085;29;20524;-81
2021/03/17 10:02:33;;;;;;;2.03;1.50;;;7.00;99.90;;;;;;4894779;29;20414;-81
2021/03/17 10:05:02;;;;;;;3.07;2.13;;;7.00;99.90;;;;;;4914982;29;20421;-81
2021/03/17 10:07:32;;;;;;;8.00;1.70;;;7.00;99.90;;;;;;4913790;29;20525;-80
2021/03/17 10:09:59;;;;;;;4.10;1.90;;;6.80;99.90;;;;;;4934673;29;20432;-80
2021/03/17 10:12:28;;;;;;;3.00;1.40;;;6.70;99.90;;;;;;4926879;29;20913;-78
2021/03/17 10:15:15;;;;;;;10.23;2.03;;;6.70;99.90;;;;;;4940229;29;20399;-80
2021/03/17 10:17:42;;;;;;;1.90;1.80;;;6.60;99.90;;;;;;4914069;29;20528;-80
2021/03/17 10:20:12;;;;;;;1.83;1.73;;;6.50;99.90;;;;;;4907156;29;20442;-80
2021/03/17 10:22:38;;;;;;;2.73;1.80;;;6.50;99.90;;;;;;4916313;29;20992;-80
2021/03/17 10:25:27;;;;;;;2.47;1.80;;;6.50;99.90;;;;;;4905488;29;20435;-80
2021/03/17 10:27:59;;;;;;;7.17;2.10;;;6.50;99.90;;;;;;4883345;29;20469;-81
2021/03/17 10:30:29;;;;;;;2.73;1.90;;;6.50;99.90;;;;;;4868690;29;20413;-81
2021/03/17 10:33:00;;;;;;;5.17;1.53;;;6.50;99.90;;;;;;4884983;29;20462;-81
2021/03/17 10:35:30;;;;;;;4.07;2.27;;;6.40;99.90;;;;;;4853686;29;20525;-80
2021/03/17 10:37:58;;;;;;;3.50;1.97;;;6.40;99.90;;;;;;4868849;29;20420;-80
2021/03/17 10:40:27;;;;;;;2.50;1.83;;;6.50;99.90;;;;;;4883890;29;20456;-80
2021/03/17 10:42:56;;;;;;;2.90;2.07;;;6.50;99.90;;;;;;4872325;29;20406;-80
2021/03/17 10:45:28;;;;;;;5.17;3.00;;;6.50;99.90;;;;;;4879821;29;20488;-81
2021/03/17 10:47:57;;;;;;;2.77;2.03;;;6.20;99.90;;;;;;4868384;29;20426;-80
2021/03/17 10:50:35;;;;;;;3.07;1.90;;;6.00;99.90;;;;;;4879379;29;20554;-81
2021/03/17 10:53:13;;;;;;;1.83;1.73;;;5.40;99.90;;;;;;4868524;29;20474;-80
2021/03/17 10:55:39;;;;;;;2.93;2.17;;;5.70;99.90;;;;;;4878491;29;20420;-80
2021/03/17 10:58:26;;;;;;;2.90;1.70;;;5.90;99.90;;;;;;4887646;29;20441;-80
2021/03/17 11:00:56;;;;;;;4.60;2.40;;;5.50;99.90;;;;;;4916918;29;20443;-81
2021/03/17 11:03:29;;;;;;;2.70;2.13;;;5.50;99.90;;;;;;4887085;29;20432;-81
2021/03/17 11:06:15;;;;;;;3.50;2.10;;;5.60;99.90;;;;;;4905099;29;20434;-80
2021/03/17 11:08:42;;;;;;;3.07;1.90;;;5.60;99.90;;;;;;4902939;29;20444;-81
2021/03/17 11:11:10;;;;;;;2.80;2.23;;;5.60;99.90;;;;;;4910311;29;20403;-78
2021/03/17 11:13:39;;;;;;;1.63;1.53;;;5.70;99.90;;;;;;4907873;29;20468;-80
2021/03/17 11:16:11;;;;;;;4.27;2.30;;;5.70;99.90;;;;;;4900944;29;20429;-80
2021/03/17 11:18:51;;;;;;;2.97;1.73;;;5.90;99.90;;;;;;4929178;29;20418;-79
2021/03/17 11:21:34;;;;;;;5.03;2.53;;;5.90;99.90;;;;;;4923195;29;20836;-78
2021/03/17 11:24:03;;;;;;;3.77;2.27;;;6.00;99.90;;;;;;4935978;29;20431;-78
2021/03/17 11:26:33;;;;;;;2.13;1.90;;;5.70;99.90;;;;;;4931837;29;20434;-78
2021/03/17 11:29:01;;;;;;;4.77;2.03;;;5.70;99.90;;;;;;4939735;29;20442;-78
2021/03/17 11:31:34;;;;;;;2.70;1.83;;;5.90;99.90;;;;;;4938520;29;20415;-78
2021/03/17 11:34:01;;;;;;;10.00;2.97;;;6.00;99.90;;;;;;4917156;29;20439;-78
2021/03/17 11:36:29;;;;;;;2.70;2.17;;;5.60;99.90;;;;;;4934945;29;20399;-80
2021/03/17 11:38:58;;;;;;;9.10;3.20;;;5.90;99.90;;;;;;4928685;29;20453;-79
2021/03/17 11:41:24;;;;;;;1.80;1.70;;;6.00;99.90;;;;;;4960785;29;20457;-80
2021/03/17 11:43:50;;;;;;;1.93;1.83;;;6.10;99.90;;;;;;4942421;29;20409;-80
2021/03/17 11:46:18;;;;;;;2.50;1.60;;;6.20;99.90;;;;;;4942262;29;20389;-80
2021/03/17 11:48:45;;;;;;;6.63;2.00;;;6.10;99.90;;;;;;4929447;29;20264;-79
2021/03/17 11:51:13;;;;;;;1.40;1.30;;;6.20;99.90;;;;;;4905756;29;20797;-80
2021/03/17 11:53:39;;;;;;;3.37;1.70;;;6.30;99.90;;;;;;4913756;29;20466;-78
2021/03/17 11:56:06;;;;;;;4.77;1.90;;;6.30;99.90;;;;;;4920280;29;20540;-78
2021/03/17 11:58:34;;;;;;;2.30;1.67;;;6.40;99.90;;;;;;4906965;29;20240;-79
2021/03/17 12:01:02;;;;;;;3.77;2.47;;;6.50;99.90;;;;;;4932551;29;20463;-80
2021/03/17 12:03:28;;;;;;;3.43;2.13;;;6.50;99.90;;;;;;4903656;29;20418;-79
2021/03/17 12:05:54;;;;;;;5.00;1.80;;;6.50;99.90;;;;;;4936789;29;20488;-79
2021/03/17 12:08:20;;;;;;;3.03;2.07;;;6.40;99.90;;;;;;4929010;29;20490;-79
2021/03/17 12:10:51;;;;;;;1.40;1.30;;;6.20;99.90;;;;;;4926152;29;20470;-77
2021/03/17 12:13:19;;;;;;;2.80;2.10;;;6.20;99.90;;;;;;4922408;29;20456;-78
2021/03/17 12:15:45;;;;;;;2.50;2.00;;;6.30;99.90;;;;;;4909258;29;20451;-77
2021/03/17 12:18:12;;;;;;;5.63;1.80;;;6.40;99.90;;;;;;4911316;29;20432;-78
2021/03/17 12:20:38;;;;;;;5.43;2.27;;;6.60;99.90;;;;;;4891390;29;20504;-79
2021/03/17 12:23:04;;;;;;;4.50;1.97;;;6.70;99.90;;;;;;4906943;29;20420;-79
2021/03/17 12:25:30;;;;;;;2.20;2.00;;;7.10;99.90;;;;;;4891473;29;20420;-78
2021/03/17 12:27:56;;;;;;;1.97;1.67;;;7.40;99.90;;;;;;4875689;29;20465;-79
2021/03/17 12:30:23;;;;;;;2.20;2.00;;;8.60;99.90;;;;;;4891272;29;20302;-79
2021/03/17 12:32:51;;;;;;;2.87;2.03;;;9.60;99.90;;;;;;4891172;29;21028;-79
2021/03/17 12:35:20;;;;;;;4.33;2.10;;;10.00;99.90;;;;;;4863577;29;20439;-79
2021/03/17 12:37:47;;;;;;;2.10;1.90;;;10.00;99.90;;;;;;4900315;29;20434;-79
2021/03/17 12:40:16;;;;;;;2.60;2.40;;;9.70;99.90;;;;;;4879783;29;20484;-81
2021/03/17 12:42:43;;;;;;;2.07;1.87;;;9.30;99.90;;;;;;4887885;29;20426;-79
2021/03/17 12:45:11;;;;;;;2.60;2.40;;;8.70;99.90;;;;;;4876188;29;20427;-80
2021/03/17 12:47:38;;;;;;;2.80;2.60;;;8.40;99.90;;;;;;4841253;29;20434;-80
2021/03/17 12:50:07;;;;;;;1.70;1.60;;;7.90;99.90;;;;;;4885064;29;20413;-81
2021/03/17 12:52:33;;;;;;;2.90;2.40;;;7.60;99.90;;;;;;4892233;29;20614;-78
2021/03/17 12:54:59;;;;;;;2.30;2.10;;;7.50;99.90;;;;;;4895019;29;20421;-78
2021/03/17 12:57:25;;;;;;;15.30;8.20;;;7.40;99.90;;;;;;4939237;29;20580;-78
2021/03/17 12:59:54;;;;;;;2.00;1.80;;;7.30;99.90;;;;;;4899741;29;20394;-78
2021/03/17 13:02:20;;;;;;;3.37;3.07;;;7.30;99.90;;;;;;4929558;29;20471;-81
2021/03/17 13:04:49;;;;;;;4.50;2.90;;;7.20;99.90;;;;;;4929463;29;20463;-80
2021/03/17 13:07:15;;;;;;;3.20;2.37;;;7.00;99.90;;;;;;4939681;29;20454;-80
2021/03/17 13:09:40;;;;;;;5.07;1.93;;;7.00;99.90;;;;;;4925098;29;20787;-79